Архив погоды в Абрамовском маяке

Метеограмма Абрамовский маяк
Вторник, 17 Июля
Время местн. Темп Ветер Видим Явления Облачность нижн/средн/верх Атм. давл. Влжн Точка росы ВНГО R Сост. почвы Tg s
Напр Скр Прв ур.ст ур.м изм
12:00 +13.9° С 2 - 20 км - переменная облачность 767 768 +0.5 79% +10.3° 600 м - - - -
09:00 +12.7° С 2 - 20 км - незначительная облачность 766 768 +0.6 82% +9.8° более 2.5 км - - - -
06:00 +10.5° С 5 - 20 км - преимущественно облачно 765 767 +1.2 93% +9.4° 600 м - Влажная (без луж) - -
03:00 +10.1° С 5 10 20 км небо без изменений {туман} облачно с прояснениями 764 766 +1 94% +9.2° 600 м - - - -
00:00 +9.2° С 7 - 500 м туман неба не видно 763 765 +1.4 97% +8.8° - - - - -
Понедельник, 16 Июля
Время местн. Темп Ветер Видим Явления Облачность нижн/средн/верх Атм. давл. Влжн Точка росы ВНГО R Сост. почвы Tg s
Напр Скр Прв ур.ст ур.м изм
21:00 +9° С,С-З 6 - 500 м туман усиливается неба не видно 762 764 +1.3 97% +8.5° - - - - -
18:00 +10.9° С 6 - 20 км - переменная облачность 761 762 +1.4 90% +9.3° - - - - -
15:00 +15.4° С-З 5 - 20 км - переменная облачность 759 761 +0.8 78% +11.6° 600 м - - - -
12:00 +17.8° С 2 - 20 км - ясно 758 760 +0.3 75% +13.3° более 2.5 км - - - -
09:00 +18.4° С-З 2 - 20 км - незначительная облачность 758 760 +0.2 77% +14.3° более 2.5 км - - - -
06:00 +17.1° З,Ю-З 2 - 20 км - переменная облачность 758 760 +0.5 78% +13.2° более 2.5 км - Влажная (без луж) - -
03:00 +13.9° В 2 - 20 км - переменная облачность 758 759 0 89% +12.1° более 2.5 км - - - -
00:00 +15.4° В 3 - 20 км - переменная облачность 758 759 0 82% +12.3° более 2.5 км - - - -
Воскресенье, 15 Июля
Время местн. Темп Ветер Видим Явления Облачность нижн/средн/верх Атм. давл. Влжн Точка росы ВНГО R Сост. почвы Tg s
Напр Скр Прв ур.ст ур.м изм
21:00 +17.2° В 2 - 20 км - переменная облачность 758 759 +0.2 71% +12° более 2.5 км - - - -
18:00 +16.9° В 4 - 20 км - преимущественно облачно 757 759 0 70% +11.4° более 2.5 км - - - -
15:00 +17.2° В,С-В 4 - 20 км - облачно с прояснениями 757 759 -0.8 68% +11.3° 600 м - - - -
12:00 +18.3° С-В 3 - 20 км - незначительная облачность 758 760 -0.4 70% +12.8° более 2.5 км - - - -
09:00 +16.9° В 3 - 20 км - переменная облачность 759 760 +0.1 72% +11.8° более 2.5 км - - - -
06:00 +15° В,Ю-В 3 - 20 км - переменная облачность 758 760 -0.1 70% +9.5° более 2.5 км 0 Влажная (без луж) +11° -
03:00 +13.8° В 2 - 20 км - переменная облачность 759 760 -0.1 78% +10° - - - - -
00:00 +13.8° С 2 - 20 км - незначительная облачность 759 761 -0.2 87% +11.7° - - - - -
Суббота, 14 Июля
Время местн. Темп Ветер Видим Явления Облачность нижн/средн/верх Атм. давл. Влжн Точка росы ВНГО R Сост. почвы Tg s
Напр Скр Прв ур.ст ур.м изм
21:00 +15.6° С 1 - 20 км - переменная облачность 759 761 +0.1 74% +10.9° - - - - -
18:00 +16° С,С-В 2 - 20 км - переменная облачность 759 761 -0.8 73% +11.1° более 2.5 км - - - -
15:00 +14.8° С,С-В 2 - 20 км - переменная облачность 760 762 -0.5 75% +10.4° 600 м - - - -
12:00 +15.3° С 3 - 20 км - переменная облачность 760 762 -0.4 78% +11.4° более 2.5 км - - - -
09:00 +15.2° С-В 2 - 20 км - незначительная облачность 760 762 0 78% +11.4° более 2.5 км - - - -